createdAt,value
2022-08-25T00:01:58.420Z,5.70
2022-08-25T00:04:26.843Z,5.50
2022-08-25T00:06:54.239Z,6.40
2022-08-25T00:09:24.946Z,6.15
2022-08-25T00:11:51.874Z,6.20
2022-08-25T00:14:25.751Z,6.27
2022-08-25T00:16:52.818Z,6.25
2022-08-25T00:19:27.246Z,7.20
2022-08-25T00:21:55.828Z,6.20
2022-08-25T00:24:23.357Z,6.75
2022-08-25T00:26:53.773Z,6.70
2022-08-25T00:29:23.546Z,6.60
2022-08-25T00:31:50.397Z,6.75
2022-08-25T00:34:21.427Z,6.57
2022-08-25T00:36:48.967Z,7.00
2022-08-25T00:39:15.792Z,6.50
2022-08-25T00:41:43.776Z,6.40
2022-08-25T00:44:12.953Z,7.40
2022-08-25T00:46:49.370Z,6.88
2022-08-25T00:49:37.302Z,6.72
2022-08-25T00:52:16.882Z,6.73
2022-08-25T00:55:29.880Z,6.80
2022-08-25T00:58:11.654Z,6.47
2022-08-25T01:00:43.869Z,6.00
2022-08-25T01:03:11.308Z,6.10
2022-08-25T01:05:40.070Z,6.23
2022-08-25T01:08:08.611Z,5.90
2022-08-25T01:10:39.592Z,5.95
2022-08-25T01:13:16.593Z,6.18
2022-08-25T01:15:45.245Z,6.15
2022-08-25T01:18:12.408Z,6.33
2022-08-25T01:20:40.042Z,5.82
2022-08-25T01:23:06.929Z,6.15
2022-08-25T01:26:10.779Z,6.10
2022-08-25T01:28:38.242Z,6.40
2022-08-25T01:31:05.307Z,6.13
2022-08-25T01:33:51.318Z,6.10
2022-08-25T01:36:19.909Z,6.25
2022-08-25T01:38:46.740Z,5.93
2022-08-25T01:41:17.869Z,6.07
2022-08-25T01:43:44.755Z,5.77
2022-08-25T01:46:11.671Z,6.00
2022-08-25T01:48:39.173Z,5.70
2022-08-25T01:51:06.463Z,5.90
2022-08-25T01:53:33.811Z,6.07
2022-08-25T01:56:09.791Z,6.13
2022-08-25T01:58:40.245Z,6.25
2022-08-25T02:01:10.155Z,5.75
2022-08-25T02:03:42.033Z,5.15
2022-08-25T02:06:15.404Z,6.20
2022-08-25T02:08:43.129Z,5.77
2022-08-25T02:11:14.845Z,5.88
2022-08-25T02:13:42.857Z,6.03
2022-08-25T02:16:15.441Z,6.03
2022-08-25T02:18:42.244Z,6.07
2022-08-25T02:21:09.243Z,6.13
2022-08-25T02:23:36.067Z,5.82
2022-08-25T02:26:05.078Z,5.97
2022-08-25T02:28:31.981Z,5.93
2022-08-25T02:31:01.654Z,5.70
2022-08-25T02:33:28.808Z,5.80
2022-08-25T02:36:00.760Z,6.30
2022-08-25T02:38:29.166Z,6.55
2022-08-25T02:40:56.963Z,6.10
2022-08-25T02:43:24.111Z,6.50
2022-08-25T02:45:50.881Z,5.50
2022-08-25T02:48:17.677Z,5.72
2022-08-25T02:50:48.909Z,5.72
2022-08-25T02:53:15.698Z,4.97
2022-08-25T02:55:42.493Z,5.68
2022-08-25T02:58:09.416Z,5.73
2022-08-25T03:00:36.791Z,5.80
2022-08-25T03:03:04.904Z,6.20
2022-08-25T03:05:32.347Z,5.65
2022-08-25T03:07:59.972Z,6.53
2022-08-25T03:10:27.047Z,5.73
2022-08-25T03:12:53.872Z,5.63
2022-08-25T03:15:20.780Z,5.97
2022-08-25T03:17:48.617Z,5.85
2022-08-25T03:20:18.220Z,6.70
2022-08-25T03:22:45.034Z,6.60
2022-08-25T03:25:11.860Z,6.40
2022-08-25T03:27:38.836Z,6.20
2022-08-25T03:30:07.036Z,6.53
2022-08-25T03:32:33.886Z,6.00
2022-08-25T03:35:00.811Z,6.10
2022-08-25T03:37:27.996Z,6.13
2022-08-25T03:39:54.889Z,5.80
2022-08-25T03:42:21.707Z,5.50
2022-08-25T03:44:48.564Z,4.63
2022-08-25T03:47:15.573Z,4.13
2022-08-25T03:49:42.455Z,5.15
2022-08-25T03:52:09.303Z,4.90
2022-08-25T03:54:36.293Z,5.10
2022-08-25T03:57:03.320Z,6.03
2022-08-25T03:59:30.108Z,7.07
2022-08-25T04:01:56.978Z,6.78
2022-08-25T04:04:24.703Z,7.07
2022-08-25T04:06:51.472Z,5.88
2022-08-25T04:09:18.320Z,6.38
2022-08-25T04:11:45.280Z,6.27
2022-08-25T04:14:15.738Z,6.47
2022-08-25T04:16:44.247Z,5.75
2022-08-25T04:19:11.960Z,5.88
2022-08-25T04:21:40.158Z,5.75
2022-08-25T04:24:09.072Z,6.00
2022-08-25T04:26:40.864Z,5.90
2022-08-25T04:29:08.958Z,5.82
2022-08-25T04:31:39.136Z,5.90
2022-08-25T04:34:28.439Z,6.18
2022-08-25T04:36:53.932Z,5.90
2022-08-25T04:39:21.644Z,5.93
2022-08-25T04:41:49.271Z,5.78
2022-08-25T04:44:16.479Z,6.72
2022-08-25T04:46:43.968Z,7.38
2022-08-25T04:49:10.879Z,6.80
2022-08-25T04:51:40.027Z,7.32
2022-08-25T04:54:12.551Z,6.90
2022-08-25T04:56:43.814Z,6.40
2022-08-25T04:59:13.165Z,6.00
2022-08-25T05:01:41.277Z,6.53
2022-08-25T05:04:15.734Z,5.93
2022-08-25T05:06:55.750Z,5.70
2022-08-25T05:09:22.586Z,5.68
2022-08-25T05:11:49.409Z,6.30
2022-08-25T05:14:16.294Z,6.27
2022-08-25T05:16:43.088Z,6.07
2022-08-25T05:19:10.301Z,5.57
2022-08-25T05:21:37.477Z,6.40
2022-08-25T05:24:05.454Z,6.43
2022-08-25T05:26:33.919Z,5.80
2022-08-25T05:29:04.040Z,6.60
2022-08-25T05:31:31.885Z,6.40
2022-08-25T05:33:59.096Z,6.28
2022-08-25T05:36:27.666Z,6.80
2022-08-25T05:38:54.529Z,6.80
2022-08-25T05:41:25.681Z,6.97
2022-08-25T05:43:52.647Z,6.75
2022-08-25T05:46:20.681Z,6.53
2022-08-25T05:48:48.827Z,7.00
2022-08-25T05:51:16.360Z,6.13
2022-08-25T05:53:45.883Z,6.15
2022-08-25T05:56:13.425Z,6.50
2022-08-25T05:58:42.030Z,6.10
2022-08-25T06:01:09.972Z,5.97
2022-08-25T06:03:36.890Z,6.07
2022-08-25T06:06:07.957Z,6.63
2022-08-25T06:08:34.802Z,6.45
2022-08-25T06:11:02.629Z,6.40
2022-08-25T06:13:29.622Z,6.20
2022-08-25T06:16:00.826Z,6.07
2022-08-25T06:18:28.142Z,6.45
2022-08-25T06:20:55.115Z,6.90
2022-08-25T06:23:21.940Z,6.22
2022-08-25T06:25:53.458Z,6.18
2022-08-25T06:28:20.915Z,6.43
2022-08-25T06:30:48.314Z,6.53
2022-08-25T06:33:15.441Z,6.60
2022-08-25T06:35:44.025Z,5.50
2022-08-25T06:38:11.475Z,7.78
2022-08-25T06:40:38.611Z,6.60
2022-08-25T06:43:05.559Z,7.38
2022-08-25T06:45:32.636Z,8.20
2022-08-25T06:47:59.591Z,7.50
2022-08-25T06:50:26.676Z,8.27
2022-08-25T06:52:53.601Z,7.03
2022-08-25T06:55:20.392Z,6.90
2022-08-25T06:57:47.464Z,6.35
2022-08-25T07:00:14.804Z,6.07
2022-08-25T07:02:41.760Z,7.30
2022-08-25T07:05:13.199Z,7.50
2022-08-25T07:07:43.656Z,6.85
2022-08-25T07:10:11.812Z,6.93
2022-08-25T07:12:39.147Z,7.68
2022-08-25T07:15:21.722Z,6.63
2022-08-25T07:17:49.474Z,6.13
2022-08-25T07:20:19.253Z,6.70
2022-08-25T07:22:47.075Z,6.35
2022-08-25T07:25:14.225Z,6.20
2022-08-25T07:27:44.509Z,6.50
2022-08-25T07:30:11.414Z,6.20
2022-08-25T07:35:18.907Z,6.53
2022-08-25T07:37:52.278Z,6.72
2022-08-25T07:40:29.152Z,6.30
2022-08-25T07:42:58.408Z,6.30
2022-08-25T07:45:30.237Z,7.13
2022-08-25T07:48:02.772Z,6.80
2022-08-25T07:50:30.950Z,6.50
2022-08-25T07:52:58.533Z,7.03
2022-08-25T07:55:27.056Z,6.67
2022-08-25T07:57:57.100Z,6.65
2022-08-25T08:00:25.047Z,5.93
2022-08-25T08:02:51.970Z,6.82
2022-08-25T08:05:20.604Z,6.93
2022-08-25T08:07:50.822Z,7.07
2022-08-25T08:10:53.872Z,7.32
2022-08-25T08:13:07.448Z,6.45
2022-08-25T08:15:35.231Z,7.30
2022-08-25T08:18:03.197Z,7.32
2022-08-25T08:20:30.784Z,6.83
2022-08-25T08:23:08.170Z,6.80
2022-08-25T08:25:35.205Z,6.47
2022-08-25T08:28:02.195Z,7.25
2022-08-25T08:30:29.067Z,5.65
2022-08-25T08:33:12.424Z,7.20
2022-08-25T08:35:43.141Z,6.40
2022-08-25T08:38:16.191Z,7.38
2022-08-25T08:41:03.865Z,6.07
2022-08-25T08:43:33.326Z,6.75
2022-08-25T08:46:00.447Z,7.33
2022-08-25T08:48:36.456Z,6.85
2022-08-25T08:51:14.787Z,7.22
2022-08-25T08:53:54.650Z,7.75
2022-08-25T08:56:47.941Z,7.00
2022-08-25T08:59:30.168Z,6.80
2022-08-25T09:02:03.235Z,7.20
2022-08-25T09:04:38.067Z,8.05
2022-08-25T09:07:11.384Z,7.75
2022-08-25T09:09:42.314Z,7.82
2022-08-25T09:12:34.361Z,6.90
2022-08-25T09:15:12.581Z,8.02
2022-08-25T09:18:05.973Z,7.47
2022-08-25T09:21:09.192Z,6.78
2022-08-25T09:23:51.298Z,7.28
2022-08-25T09:26:40.158Z,7.17
2022-08-25T09:29:19.764Z,7.38
2022-08-25T09:31:48.875Z,6.60
2022-08-25T09:34:22.142Z,7.32
2022-08-25T09:36:49.855Z,7.30
2022-08-25T09:39:17.017Z,7.57
2022-08-25T09:41:45.868Z,7.50
2022-08-25T09:44:18.735Z,6.70
2022-08-25T09:47:05.462Z,7.00
2022-08-25T09:49:40.281Z,7.07
2022-08-25T09:52:28.780Z,6.90
2022-08-25T09:54:57.812Z,6.90
2022-08-25T09:57:49.557Z,6.82
2022-08-25T10:00:22.138Z,6.78
2022-08-25T10:03:09.874Z,7.40
2022-08-25T10:05:59.339Z,6.30
2022-08-25T10:08:32.135Z,8.20
2022-08-25T10:11:01.869Z,7.80
2022-08-25T10:13:49.329Z,8.63
2022-08-25T10:16:32.125Z,8.30
2022-08-25T10:19:00.961Z,8.40
2022-08-25T10:21:27.836Z,9.55
2022-08-25T10:23:55.391Z,10.13
2022-08-25T10:26:41.951Z,8.65
2022-08-25T10:29:41.685Z,7.43
2022-08-25T10:32:59.534Z,8.60
2022-08-25T10:35:32.973Z,8.70
2022-08-25T10:38:21.542Z,9.10
2022-08-25T10:40:51.650Z,9.80
2022-08-25T10:43:34.054Z,10.10
2022-08-25T10:46:26.415Z,9.13
2022-08-25T10:49:04.222Z,8.95
2022-08-25T10:51:56.817Z,7.55
2022-08-25T10:54:29.825Z,8.90
2022-08-25T10:57:18.915Z,8.13
2022-08-25T11:00:06.144Z,8.83
2022-08-25T11:02:52.145Z,6.97
2022-08-25T11:05:28.003Z,6.93
2022-08-25T11:08:08.071Z,8.40
2022-08-25T11:10:42.200Z,8.70
2022-08-25T11:13:46.555Z,8.30
2022-08-25T11:16:18.950Z,7.47
2022-08-25T11:18:54.339Z,7.07
2022-08-25T11:21:39.857Z,6.70
2022-08-25T11:24:22.079Z,6.57
2022-08-25T11:26:55.463Z,7.07
2022-08-25T11:29:27.576Z,7.60
2022-08-25T11:31:59.753Z,7.70
2022-08-25T11:34:32.336Z,8.88
2022-08-25T11:37:11.311Z,8.55
2022-08-25T11:39:47.528Z,7.90
2022-08-25T11:42:32.964Z,9.23
2022-08-25T11:45:34.467Z,8.43
2022-08-25T11:48:18.165Z,8.95
2022-08-25T11:51:02.898Z,9.57
2022-08-25T11:53:42.837Z,7.90
2022-08-25T11:56:34.777Z,7.80
2022-08-25T11:59:02.171Z,8.63
2022-08-25T12:01:41.323Z,8.02
2022-08-25T12:04:32.958Z,9.15
2022-08-25T12:07:05.765Z,7.83
2022-08-25T12:09:54.325Z,7.40
2022-08-25T12:12:31.574Z,7.22
2022-08-25T12:15:53.858Z,7.40
2022-08-25T12:18:20.820Z,7.40
2022-08-25T12:20:53.687Z,7.37
2022-08-25T12:23:44.904Z,7.30
2022-08-25T12:26:46.122Z,6.32
2022-08-25T12:29:40.293Z,7.72
2022-08-25T12:32:33.157Z,7.00
2022-08-25T12:35:21.972Z,8.13
2022-08-25T12:38:03.852Z,7.80
2022-08-25T12:40:59.070Z,7.00
2022-08-25T12:43:37.536Z,7.72
2022-08-25T12:46:23.057Z,7.40
2022-08-25T12:48:55.856Z,7.47
2022-08-25T12:51:25.983Z,7.60
2022-08-25T12:54:15.881Z,7.47
2022-08-25T12:56:50.548Z,7.03
2022-08-25T12:59:33.099Z,6.47
2022-08-25T13:02:18.399Z,7.27
2022-08-25T13:04:58.590Z,6.85
2022-08-25T13:07:54.079Z,6.82
2022-08-25T13:10:42.982Z,7.10
2022-08-25T13:13:46.863Z,6.85
2022-08-25T13:16:20.027Z,6.63
2022-08-25T13:18:51.635Z,6.88
2022-08-25T13:21:38.155Z,6.43
2022-08-25T13:24:16.678Z,6.00
2022-08-25T13:26:48.975Z,6.15
2022-08-25T13:29:37.338Z,6.40
2022-08-25T13:32:13.007Z,7.13
2022-08-25T13:34:43.390Z,7.22
2022-08-25T13:37:16.326Z,6.97
2022-08-25T13:39:56.709Z,6.20
2022-08-25T13:42:28.793Z,6.40
2022-08-25T13:45:01.588Z,6.45
2022-08-25T13:47:45.297Z,6.10
2022-08-25T13:50:27.904Z,5.55
2022-08-25T13:53:01.537Z,5.80
2022-08-25T13:55:38.177Z,5.90
2022-08-25T13:58:32.326Z,5.93
2022-08-25T14:01:22.889Z,5.47
2022-08-25T14:04:33.468Z,6.90
2022-08-25T14:07:25.658Z,6.88
2022-08-25T14:09:55.517Z,6.40
2022-08-25T14:12:37.322Z,6.38
2022-08-25T14:15:07.420Z,5.60
2022-08-25T14:17:39.868Z,6.22
2022-08-25T14:20:18.520Z,5.72
2022-08-25T14:22:45.521Z,5.90
2022-08-25T14:25:12.610Z,5.95
2022-08-25T14:28:03.552Z,6.43
2022-08-25T14:30:32.344Z,6.38
2022-08-25T14:33:02.111Z,6.00
2022-08-25T14:35:29.176Z,6.00
2022-08-25T14:37:58.989Z,6.30
2022-08-25T14:40:27.358Z,6.03
2022-08-25T14:42:55.724Z,5.70
2022-08-25T14:45:22.798Z,5.70
2022-08-25T14:47:50.193Z,5.73
2022-08-25T14:50:20.153Z,5.68
2022-08-25T14:52:51.814Z,5.20
2022-08-25T14:55:21.136Z,4.90
2022-08-25T14:57:59.826Z,4.90
2022-08-25T15:00:27.013Z,4.50
2022-08-25T15:02:55.265Z,5.10
2022-08-25T15:05:25.918Z,4.63
2022-08-25T15:07:54.858Z,5.10
2022-08-25T15:10:21.962Z,4.30
2022-08-25T15:12:51.187Z,4.70
2022-08-25T15:15:21.255Z,5.10
2022-08-25T15:17:49.312Z,4.88
2022-08-25T15:20:17.177Z,4.55
2022-08-25T15:22:44.008Z,4.57
2022-08-25T15:25:10.878Z,4.60
2022-08-25T15:27:37.842Z,4.38
2022-08-25T15:30:05.481Z,4.40
2022-08-25T15:32:32.391Z,4.53
2022-08-25T15:34:59.193Z,4.47
2022-08-25T15:37:26.090Z,4.63
2022-08-25T15:39:52.994Z,4.90
2022-08-25T15:42:20.120Z,5.15
2022-08-25T15:44:53.257Z,4.80
2022-08-25T15:47:22.181Z,4.57
2022-08-25T15:49:49.216Z,4.37
2022-08-25T15:52:17.096Z,4.68
2022-08-25T15:54:45.995Z,4.38
2022-08-25T15:57:24.156Z,4.40
2022-08-25T15:59:52.144Z,4.75
2022-08-25T16:02:20.973Z,4.50
2022-08-25T16:04:48.630Z,4.60
2022-08-25T16:07:15.489Z,4.50
2022-08-25T16:09:42.403Z,4.45
2022-08-25T16:12:11.240Z,4.28
2022-08-25T16:14:39.918Z,4.43
2022-08-25T16:17:08.356Z,4.75
2022-08-25T16:19:38.137Z,4.85
2022-08-25T16:22:06.668Z,4.90
2022-08-25T16:24:38.593Z,5.10
2022-08-25T16:27:11.211Z,5.20
2022-08-25T16:29:40.938Z,4.40
2022-08-25T16:32:09.534Z,4.90
2022-08-25T16:34:36.632Z,5.10
2022-08-25T16:37:04.566Z,4.78
2022-08-25T16:39:33.301Z,4.77
2022-08-25T16:42:00.293Z,4.80
2022-08-25T16:44:28.539Z,4.60
2022-08-25T16:46:56.019Z,4.20
2022-08-25T16:49:24.348Z,4.32
2022-08-25T16:51:57.581Z,4.80
2022-08-25T16:54:28.328Z,4.60
2022-08-25T16:56:55.521Z,4.50
2022-08-25T16:59:23.506Z,4.40
2022-08-25T17:01:52.382Z,4.82
2022-08-25T17:04:20.106Z,4.73
2022-08-25T17:06:51.755Z,4.50
2022-08-25T17:09:23.850Z,4.60
2022-08-25T17:11:52.423Z,4.72
2022-08-25T17:14:21.612Z,4.22
2022-08-25T17:16:48.482Z,4.27
2022-08-25T17:19:18.528Z,4.40
2022-08-25T17:21:45.797Z,4.32
2022-08-25T17:24:13.863Z,4.20
2022-08-25T17:26:42.399Z,4.10
2022-08-25T17:29:09.868Z,4.50
2022-08-25T17:31:37.295Z,4.03
2022-08-25T17:34:04.241Z,4.15
2022-08-25T17:36:31.122Z,4.13
2022-08-25T17:38:57.963Z,4.38
2022-08-25T17:41:25.464Z,4.13
2022-08-25T17:43:52.351Z,4.07
2022-08-25T17:46:20.682Z,4.18
2022-08-25T17:48:47.828Z,4.35
2022-08-25T17:51:15.942Z,4.78
2022-08-25T17:53:43.251Z,5.00
2022-08-25T17:56:14.323Z,4.60
2022-08-25T17:58:42.181Z,4.95
2022-08-25T18:01:22.233Z,5.32
2022-08-25T18:03:49.394Z,5.18
2022-08-25T18:06:17.005Z,5.10
2022-08-25T18:08:45.345Z,5.00
2022-08-25T18:11:20.452Z,5.57
2022-08-25T18:13:47.748Z,4.88
2022-08-25T18:16:17.429Z,5.15
2022-08-25T18:18:44.909Z,5.10
2022-08-25T18:21:14.615Z,4.88
2022-08-25T18:23:42.419Z,4.90
2022-08-25T18:26:10.590Z,4.82
2022-08-25T18:28:40.571Z,4.75
2022-08-25T18:31:11.438Z,4.60
2022-08-25T18:33:38.749Z,4.72
2022-08-25T18:36:09.756Z,4.28
2022-08-25T18:38:37.448Z,4.50
2022-08-25T18:41:07.612Z,4.43
2022-08-25T18:43:35.267Z,4.30
2022-08-25T18:46:03.906Z,4.40
2022-08-25T18:48:32.554Z,4.93
2022-08-25T18:51:01.183Z,4.60
2022-08-25T18:53:37.522Z,4.30
2022-08-25T18:56:17.967Z,4.40
2022-08-25T18:58:45.283Z,4.30
2022-08-25T19:01:16.884Z,4.20
2022-08-25T19:03:45.999Z,4.30
2022-08-25T19:06:13.047Z,4.50
2022-08-25T19:08:39.969Z,4.60
2022-08-25T19:11:09.898Z,4.45
2022-08-25T19:13:38.198Z,4.43
2022-08-25T19:16:29.923Z,4.35
2022-08-25T19:18:57.255Z,4.47
2022-08-25T19:21:25.354Z,4.50
2022-08-25T19:23:52.553Z,4.68
2022-08-25T19:26:19.713Z,4.50
2022-08-25T19:28:49.043Z,4.30
2022-08-25T19:31:18.301Z,4.15
2022-08-25T19:33:46.870Z,4.40
2022-08-25T19:36:15.515Z,4.70
2022-08-25T19:38:43.256Z,4.82
2022-08-25T19:41:14.581Z,4.60
2022-08-25T19:43:56.609Z,4.28
2022-08-25T19:46:35.307Z,4.80
2022-08-25T19:49:11.833Z,4.68
2022-08-25T19:51:41.101Z,4.95
2022-08-25T19:54:13.743Z,4.68
2022-08-25T19:56:54.018Z,4.68
2022-08-25T19:59:40.698Z,4.57
2022-08-25T20:02:15.214Z,4.53
2022-08-25T20:04:49.320Z,4.78
2022-08-25T20:07:21.048Z,4.93
2022-08-25T20:09:48.053Z,4.75
2022-08-25T20:14:48.258Z,4.55
2022-08-25T20:17:23.943Z,4.60
2022-08-25T20:19:55.477Z,4.70
2022-08-25T20:22:26.441Z,5.30
2022-08-25T20:24:56.076Z,5.43
2022-08-25T20:27:34.712Z,4.80
2022-08-25T20:30:03.227Z,4.60
2022-08-25T20:32:31.803Z,4.65
2022-08-25T20:34:58.679Z,4.72
2022-08-25T20:37:25.809Z,4.43
2022-08-25T20:39:53.037Z,5.22
2022-08-25T20:42:20.314Z,4.63
2022-08-25T20:44:47.243Z,4.85
2022-08-25T20:47:14.698Z,4.68
2022-08-25T20:49:42.562Z,4.70
2022-08-25T20:52:10.501Z,5.03
2022-08-25T20:54:37.773Z,4.82
2022-08-25T20:57:04.933Z,5.05
2022-08-25T20:59:35.064Z,4.80
2022-08-25T21:02:02.378Z,4.73
2022-08-25T21:04:31.065Z,5.25
2022-08-25T21:06:58.787Z,5.30
2022-08-25T21:09:27.422Z,4.85
2022-08-25T21:11:55.965Z,5.50
2022-08-25T21:14:25.074Z,5.40
2022-08-25T21:16:54.548Z,5.25
2022-08-25T21:19:26.825Z,5.70
2022-08-25T21:21:59.809Z,5.20
2022-08-25T21:24:28.546Z,5.25
2022-08-25T21:26:57.668Z,5.37
2022-08-25T21:29:28.437Z,5.40
2022-08-25T21:31:58.610Z,5.43
2022-08-25T21:34:26.114Z,5.25
2022-08-25T21:36:56.704Z,5.18
2022-08-25T21:39:25.072Z,5.10
2022-08-25T21:41:52.832Z,5.70
2022-08-25T21:44:20.469Z,5.30
2022-08-25T21:46:54.336Z,5.57
2022-08-25T21:49:23.054Z,5.53
2022-08-25T21:51:59.258Z,5.30
2022-08-25T21:54:27.220Z,5.35
2022-08-25T21:57:02.038Z,5.20
2022-08-25T21:59:38.583Z,5.50
2022-08-25T22:02:08.996Z,5.28
2022-08-25T22:04:36.576Z,5.40
2022-08-25T22:07:03.575Z,5.50
2022-08-25T22:09:30.760Z,5.30
2022-08-25T22:11:58.694Z,5.18
2022-08-25T22:14:27.469Z,5.65
2022-08-25T22:16:55.464Z,5.50
2022-08-25T22:19:23.146Z,5.50
2022-08-25T22:21:51.160Z,5.40
2022-08-25T22:24:18.778Z,5.80
2022-08-25T22:26:47.776Z,6.10
2022-08-25T22:29:24.810Z,5.60
2022-08-25T22:31:53.808Z,5.10
2022-08-25T22:34:30.530Z,5.68
2022-08-25T22:37:00.704Z,5.50
2022-08-25T22:39:27.948Z,5.20
2022-08-25T22:41:55.466Z,5.60
2022-08-25T22:44:23.391Z,5.53
2022-08-25T22:46:50.335Z,5.68
2022-08-25T22:49:18.143Z,5.38
2022-08-25T22:51:46.997Z,5.88
2022-08-25T22:54:14.842Z,5.70
2022-08-25T22:56:42.509Z,6.00
2022-08-25T22:59:12.001Z,5.82
2022-08-25T23:01:40.014Z,5.68
2022-08-25T23:04:08.246Z,6.00
2022-08-25T23:06:35.754Z,5.50
2022-08-25T23:09:05.290Z,5.93
2022-08-25T23:11:32.182Z,6.03
2022-08-25T23:14:00.163Z,7.03
2022-08-25T23:16:27.158Z,6.70
2022-08-25T23:18:54.746Z,7.00
2022-08-25T23:21:24.297Z,6.45
2022-08-25T23:23:51.322Z,7.30
2022-08-25T23:26:19.305Z,6.78
2022-08-25T23:28:47.650Z,6.20
2022-08-25T23:31:16.651Z,7.23
2022-08-25T23:33:44.328Z,7.03
2022-08-25T23:36:15.249Z,6.88
2022-08-25T23:38:46.474Z,6.88
2022-08-25T23:41:22.934Z,6.70
2022-08-25T23:43:50.771Z,6.50
2022-08-25T23:46:20.610Z,6.82
2022-08-25T23:48:48.946Z,6.13
2022-08-25T23:51:28.757Z,5.88
2022-08-25T23:53:57.163Z,6.30
2022-08-25T23:56:26.269Z,7.00
2022-08-25T23:58:55.640Z,7.18
